Kezdőlap
METAR-TAF:

METAR-TAF

Repülőterek :

Audubon County Airport

Audubon, Iowa, Amerikai Egyesült Államok

földrajzi szélesség: 41-42-04N, földrajzi hosszúság: 094-55-13W, magasság: 392 m

Jelenlegi meteorológiai megfigyelések

A jelentés 19 perccel ezelõtt készült, 17:15 UTC
Déli szél 9 kt
Hőmérséklet 31°C
Páratartalom 63%
Légköri nyomás 1017 hPa
Látótávolság: 16.1 km

METAR: KADU 131715Z AUTO 17009KT 10SM 31/23 A3004 RMK AO2

Idő: 12:34 (17:34 UTC)


TAF: hiányzik

Meteorológiai megfigyelések és előrejelzések több, mint 4000 repülőtéren (METAR és TAF jelentéseket).

A térképen piros és sárga pontok jelzik az elérhető meteorológiai állomásokat.

Mozgassa az egeret a pont fölött, hogy megjelenjen az állomás neve.

Azután kattintson az időjárási megfigyelések és előrejelzések megtekintéséhez.

A térkép megváltoztatása: kattintson a fekete keresztel jelölt zöld gombra ráközelítéshez, a vonallal jelölt zöld gombra távolításhoz, vagy a zöld nyilakra a szomszédos térképek eléréséhez.


METAR-TAF: